Time;durP1;ratioP1;P1;durP2;ratioP2;P2;SDS_P1;SDS_P2;PMS_P1;PMS_P2;Temp;Humidity;BMP_temperature;BMP_pressure;BME280_temperature;BME280_humidity;BME280_pressure;Samples;Min_cycle;Max_cycle;Signal;HPM_P1;HPM_P2
2024/03/31 00:02:50;;;;;;;1.87;1.67;;;;;;;14.96;85.94;100734.66;31430490;28;20052;-78
2024/03/31 00:17:51;;;;;;;3.13;1.60;;;;;;;14.97;86.00;100736.19;31404773;28;20110;-76
2024/03/31 00:32:52;;;;;;;2.40;1.53;;;;;;;15.01;86.15;100725.94;31424242;28;20056;-79
2024/03/31 00:47:53;;;;;;;3.08;1.88;;;;;;;14.85;87.13;100720.53;31435586;28;20041;-79
2024/03/31 01:02:54;;;;;;;3.47;1.50;;;;;;;14.75;88.66;100729.78;31415332;28;20045;-78
2024/03/31 01:17:55;;;;;;;4.33;1.47;;;;;;;14.66;87.22;100742.09;31444785;28;20056;-79
2024/03/31 01:32:58;;;;;;;3.13;1.55;;;;;;;14.72;86.14;100738.84;31441402;28;20726;-77
2024/03/31 01:47:59;;;;;;;2.47;1.40;;;;;;;14.70;84.19;100749.41;31443480;28;20057;-77
2024/03/31 02:03:00;;;;;;;1.87;1.67;;;;;;;14.65;83.96;100762.41;31421457;28;20055;-79
2024/03/31 02:18:01;;;;;;;5.20;1.53;;;;;;;14.54;83.95;100767.38;31424702;28;20057;-76
2024/03/31 02:33:02;;;;;;;1.73;1.27;;;;;;;14.45;82.47;100764.50;31420145;28;20057;-78
2024/03/31 02:48:03;;;;;;;3.47;1.50;;;;;;;14.85;80.62;100764.25;31443925;28;20044;-78
2024/03/31 03:03:04;;;;;;;3.23;1.37;;;;;;;14.24;87.41;100765.00;31428403;28;20410;-78
2024/03/31 03:18:05;;;;;;;1.80;1.35;;;;;;;14.12;93.19;100765.69;31443037;28;20502;-77
2024/03/31 03:33:06;;;;;;;1.73;1.30;;;;;;;14.50;96.97;100769.44;31416662;28;20147;-77
2024/03/31 03:48:07;;;;;;;3.03;1.60;;;;;;;14.02;100.00;100772.16;31428144;28;20552;-78
2024/03/31 04:03:08;;;;;;;4.70;2.03;;;;;;;14.54;100.00;100791.22;31436019;28;20037;-77
2024/03/31 04:18:10;;;;;;;4.53;1.90;;;;;;;14.42;100.00;100789.16;31434108;28;20049;-78
2024/03/31 04:33:10;;;;;;;3.70;2.17;;;;;;;14.74;97.91;100786.41;31422349;28;20044;-78
2024/03/31 04:48:11;;;;;;;4.67;2.70;;;;;;;15.30;93.03;100800.50;31442449;28;20131;-78
2024/03/31 05:03:13;;;;;;;5.53;2.50;;;;;;;15.99;86.73;100806.34;31433437;28;20049;-80
2024/03/31 05:18:16;;;;;;;3.87;2.30;;;;;;;16.49;83.99;100810.22;31429158;28;20060;-79
2024/03/31 05:33:17;;;;;;;5.53;2.20;;;;;;;17.35;76.68;100814.31;31419167;28;20045;-77
2024/03/31 05:48:18;;;;;;;2.80;1.87;;;;;;;18.51;69.78;100804.75;31443338;28;20102;-79
2024/03/31 06:03:19;;;;;;;4.57;1.93;;;;;;;19.98;61.59;100836.47;31433651;28;20053;-78
2024/03/31 06:18:20;;;;;;;3.88;1.95;;;;;;;20.86;58.05;100841.66;31453278;28;20056;-78
2024/03/31 06:33:21;;;;;;;6.68;2.13;;;;;;;22.26;54.24;100835.81;31455317;28;20083;-80
2024/03/31 06:48:22;;;;;;;4.25;2.08;;;;;;;23.66;49.06;100838.19;31433325;28;20052;-80
2024/03/31 07:03:23;;;;;;;3.08;1.40;;;;;;;25.37;45.27;100830.50;31431672;28;20045;-79
2024/03/31 07:18:24;;;;;;;5.28;1.50;;;;;;;26.07;36.41;100830.25;31430805;28;20060;-80
2024/03/31 07:33:25;;;;;;;6.50;1.00;;;;;;;27.15;31.95;100812.66;31426197;28;20049;-80
2024/03/31 07:48:26;;;;;;;1.50;0.90;;;;;;;28.04;29.08;100800.78;31424462;28;20052;-78
2024/03/31 08:03:28;;;;;;;1.33;0.70;;;;;;;28.77;27.61;100806.28;31441001;28;20293;-77
2024/03/31 08:18:29;;;;;;;1.37;0.70;;;;;;;29.96;25.14;100811.56;31421743;28;20064;-78
2024/03/31 08:33:30;;;;;;;1.23;0.40;;;;;;;31.02;24.63;100815.03;31409803;28;20387;-78
2024/03/31 08:48:32;;;;;;;0.90;0.45;;;;;;;30.86;22.60;100814.88;31439717;28;20570;-77
2024/03/31 09:03:33;;;;;;;1.00;0.60;;;;;;;31.14;21.96;100807.91;31430392;28;20106;-77
2024/03/31 09:18:34;;;;;;;4.70;0.80;;;;;;;31.72;20.27;100798.31;31421030;28;20053;-77
2024/03/31 09:33:39;;;;;;;4.10;0.60;;;;;;;32.39;19.69;100799.31;31438376;28;20061;-75
2024/03/31 09:48:45;;;;;;;0.60;0.47;;;;;;;32.31;20.31;100792.94;31442680;28;20312;-79
2024/03/31 10:03:52;;;;;;;0.70;0.35;;;;;;;32.28;19.59;100786.34;31414184;28;20065;-77
2024/03/31 10:18:56;;;;;;;1.60;0.50;;;;;;;31.99;19.98;100782.78;31428193;28;20509;-80
2024/03/31 10:33:57;;;;;;;2.08;0.60;;;;;;;32.95;20.12;100783.63;31424207;28;20411;-78
2024/03/31 10:49:01;;;;;;;2.05;0.50;;;;;;;33.04;18.93;100763.41;31438089;28;20153;-79
2024/03/31 11:04:19;;;;;;;1.20;0.38;;;;;;;32.82;17.68;100743.13;31423973;28;20064;-78
2024/03/31 11:19:21;;;;;;;1.50;0.70;;;;;;;32.66;22.52;100730.28;31433343;28;20052;-81
2024/03/31 11:34:22;;;;;;;3.88;0.85;;;;;;;33.43;23.71;100709.41;31435526;28;20044;-79
2024/03/31 11:49:23;;;;;;;0.95;0.55;;;;;;;33.15;23.46;100701.88;31437621;28;20459;-78
2024/03/31 12:04:29;;;;;;;1.70;0.63;;;;;;;30.51;23.08;100666.88;31430280;28;20063;-79
2024/03/31 12:19:31;;;;;;;2.05;0.80;;;;;;;28.21;23.99;100635.19;31435912;28;20127;-77
2024/03/31 12:34:33;;;;;;;2.33;0.77;;;;;;;27.45;24.51;100635.00;31445711;28;20040;-75
2024/03/31 12:49:34;;;;;;;1.67;0.60;;;;;;;26.75;25.88;100602.47;31435320;28;20076;-75
2024/03/31 13:04:39;;;;;;;6.57;0.82;;;;;;;26.56;26.52;100607.94;31440576;28;20064;-78
2024/03/31 13:19:40;;;;;;;4.88;0.90;;;;;;;26.01;26.33;100609.75;31436529;28;20652;-78
2024/03/31 13:34:41;;;;;;;3.17;0.70;;;;;;;25.89;25.93;100597.19;31441833;28;20542;-78
2024/03/31 13:49:43;;;;;;;1.20;0.43;;;;;;;25.67;25.30;100580.59;31431324;28;20045;-78
2024/03/31 14:04:44;;;;;;;1.60;0.50;;;;;;;25.37;25.46;100572.81;31425676;28;20097;-76
2024/03/31 14:19:45;;;;;;;3.45;0.50;;;;;;;25.25;25.82;100598.38;31439876;28;20053;-77
2024/03/31 14:34:46;;;;;;;1.75;0.60;;;;;;;25.15;27.29;100570.09;31448411;28;20049;-77
2024/03/31 14:49:47;;;;;;;2.20;0.50;;;;;;;25.02;27.98;100567.09;31425067;28;20049;-78
2024/03/31 15:04:48;;;;;;;2.42;0.70;;;;;;;25.02;29.15;100581.00;31446800;28;20053;-77
2024/03/31 15:19:49;;;;;;;1.92;0.70;;;;;;;24.75;30.26;100572.16;31439084;28;20060;-79
2024/03/31 15:34:50;;;;;;;1.00;0.60;;;;;;;24.29;31.13;100580.94;31439853;28;20048;-80
2024/03/31 15:49:51;;;;;;;1.32;0.60;;;;;;;23.69;32.55;100598.84;31428183;28;20316;-78
2024/03/31 16:04:52;;;;;;;1.05;0.60;;;;;;;23.17;32.98;100579.66;31438431;28;20505;-79
2024/03/31 16:19:53;;;;;;;3.78;1.10;;;;;;;22.52;34.38;100587.69;31439624;28;20057;-78
2024/03/31 16:34:54;;;;;;;1.40;0.80;;;;;;;21.86;35.45;100593.25;31423687;28;20509;-77
2024/03/31 16:49:55;;;;;;;5.26;1.20;;;;;;;21.29;36.65;100602.03;31446468;28;20052;-78
2024/03/31 17:04:57;;;;;;;1.13;0.77;;;;;;;20.72;38.41;100621.69;31436187;28;20513;-77
2024/03/31 17:19:58;;;;;;;1.84;1.12;;;;;;;20.15;41.04;100618.34;31449049;28;20048;-76
2024/03/31 17:34:59;;;;;;;3.08;1.33;;;;;;;19.58;44.65;100626.69;31446417;28;20082;-79
2024/03/31 17:50:00;;;;;;;2.67;1.60;;;;;;;19.00;49.08;100625.06;31903654;22;20044;-78
2024/03/31 18:05:03;;;;;;;5.57;2.00;;;;;;;18.65;52.51;100619.97;31486800;28;20055;-80
2024/03/31 18:20:05;;;;;;;4.63;2.10;;;;;;;18.18;56.62;100608.69;31483849;28;20481;-80
2024/03/31 18:35:07;;;;;;;3.47;2.00;;;;;;;17.74;61.01;100608.94;31466506;28;20469;-80
2024/03/31 18:50:08;;;;;;;7.57;3.83;;;;;;;17.37;64.14;100614.31;31470081;28;20056;-81
2024/03/31 19:05:09;;;;;;;6.70;2.60;;;;;;;17.02;68.98;100610.97;31428391;28;20421;-80
2024/03/31 19:20:10;;;;;;;5.23;1.90;;;;;;;16.57;75.13;100625.13;31395794;28;20045;-79
2024/03/31 19:35:11;;;;;;;5.47;2.70;;;;;;;16.29;79.56;100591.31;31466995;28;20417;-79
2024/03/31 19:50:12;;;;;;;8.55;2.10;;;;;;;16.03;80.96;100587.91;31419921;28;20049;-79
2024/03/31 20:05:14;;;;;;;6.03;2.50;;;;;;;15.81;85.87;100580.88;31451725;28;20049;-81
2024/03/31 20:20:15;;;;;;;5.07;2.00;;;;;;;15.58;91.58;100599.19;31369765;28;20055;-79
2024/03/31 20:35:16;;;;;;;4.00;2.57;;;;;;;15.54;97.00;100597.75;31408630;28;20052;-79
2024/03/31 20:50:18;;;;;;;5.73;3.20;;;;;;;15.55;97.43;100615.69;31423999;28;20052;-79
2024/03/31 21:05:19;;;;;;;4.17;2.30;;;;;;;15.45;97.52;100609.34;31430202;28;20387;-75
2024/03/31 21:20:20;;;;;;;8.47;3.00;;;;;;;15.66;95.89;100605.97;31538728;28;20074;-78
2024/03/31 21:35:21;;;;;;;4.93;2.47;;;;;;;15.31;98.49;100599.63;31457017;28;20091;-78
2024/03/31 21:50:22;;;;;;;4.23;2.33;;;;;;;14.93;100.00;100590.63;31455340;28;20056;-77
2024/03/31 22:05:23;;;;;;;5.97;2.53;;;;;;;14.88;100.00;100577.53;31420622;28;20508;-77
2024/03/31 22:20:24;;;;;;;6.07;2.50;;;;;;;14.83;100.00;100578.06;31406182;28;20056;-79
2024/03/31 22:35:25;;;;;;;4.40;2.50;;;;;;;14.98;100.00;100576.44;31418261;28;20425;-77
2024/03/31 22:50:26;;;;;;;8.07;2.63;;;;;;;14.93;100.00;100569.53;31420191;28;20061;-75
2024/03/31 23:05:27;;;;;;;5.23;2.20;;;;;;;14.88;99.18;100539.28;31433979;28;20052;-77
2024/03/31 23:20:28;;;;;;;6.27;2.10;;;;;;;14.91;91.78;100532.91;31502561;28;20059;-77
2024/03/31 23:35:29;;;;;;;2.87;1.90;;;;;;;14.88;85.71;100511.94;31497132;28;20084;-74
2024/03/31 23:50:30;;;;;;;4.30;2.10;;;;;;;14.79;85.14;100473.56;31389293;28;20521;-76
